createdAt,value
2019-05-20T00:00:08.974Z,12.06
2019-05-20T00:02:38.830Z,12.07
2019-05-20T00:05:08.208Z,12.07
2019-05-20T00:07:37.495Z,12.08
2019-05-20T00:10:08.416Z,12.00
2019-05-20T00:12:37.745Z,12.00
2019-05-20T00:15:07.155Z,12.01
2019-05-20T00:17:36.455Z,11.98
2019-05-20T00:20:07.417Z,12.00
2019-05-20T00:22:36.714Z,12.03
2019-05-20T00:25:07.373Z,12.09
2019-05-20T00:27:36.856Z,12.09
2019-05-20T00:30:07.106Z,12.02
2019-05-20T00:32:41.142Z,11.99
2019-05-20T00:35:07.868Z,12.01
2019-05-20T00:37:37.232Z,12.00
2019-05-20T00:40:09.023Z,11.96
2019-05-20T00:42:38.336Z,12.02
2019-05-20T00:45:07.785Z,12.00
2019-05-20T00:47:37.071Z,12.03
2019-05-20T00:50:06.745Z,12.01
2019-05-20T00:52:36.051Z,11.99
2019-05-20T00:55:07.309Z,12.01
2019-05-20T00:57:36.696Z,12.05
2019-05-20T01:00:07.761Z,12.00
2019-05-20T01:02:37.160Z,11.97
2019-05-20T01:05:07.503Z,12.03
2019-05-20T01:07:37.392Z,12.09
2019-05-20T01:10:07.078Z,12.12
2019-05-20T01:12:36.387Z,12.12
2019-05-20T01:15:06.836Z,12.14
2019-05-20T01:17:36.118Z,12.12
2019-05-20T01:20:06.870Z,12.04
2019-05-20T01:22:36.391Z,11.98
2019-05-20T01:25:06.223Z,12.00
2019-05-20T01:27:35.494Z,12.00
2019-05-20T01:30:07.881Z,11.97
2019-05-20T01:32:37.172Z,12.02
2019-05-20T01:35:08.402Z,12.04
2019-05-20T01:37:37.681Z,12.04
2019-05-20T01:40:08.503Z,12.00
2019-05-20T01:42:37.791Z,11.95
2019-05-20T01:45:07.550Z,11.99
2019-05-20T01:47:36.823Z,11.90
2019-05-20T01:50:07.547Z,11.88
2019-05-20T01:52:36.909Z,11.86
2019-05-20T01:55:09.985Z,11.84
2019-05-20T01:57:39.259Z,11.83
2019-05-20T02:00:09.115Z,11.83
2019-05-20T02:02:38.463Z,11.88
2019-05-20T02:05:08.135Z,11.88
2019-05-20T02:07:37.502Z,11.84
2019-05-20T02:10:07.551Z,11.85
2019-05-20T02:12:36.837Z,11.83
2019-05-20T02:15:12.069Z,11.87
2019-05-20T02:17:41.348Z,11.79
2019-05-20T02:20:10.922Z,11.83
2019-05-20T02:22:40.254Z,11.76
2019-05-20T02:25:09.784Z,11.82
2019-05-20T02:27:39.102Z,11.84
2019-05-20T02:30:08.766Z,11.85
2019-05-20T02:32:38.047Z,11.80
2019-05-20T02:35:07.786Z,11.80
2019-05-20T02:37:37.087Z,11.86
2019-05-20T02:40:07.740Z,11.82
2019-05-20T02:42:37.172Z,11.82
2019-05-20T02:45:07.914Z,11.85
2019-05-20T02:47:37.229Z,11.79
2019-05-20T02:50:07.595Z,11.83
2019-05-20T02:52:36.875Z,11.82
2019-05-20T02:55:07.258Z,11.85
2019-05-20T02:57:36.626Z,11.87
2019-05-20T03:00:09.107Z,11.85
2019-05-20T03:02:38.430Z,11.85
2019-05-20T03:05:07.775Z,11.79
2019-05-20T03:07:37.090Z,11.72
2019-05-20T03:10:06.924Z,11.70
2019-05-20T03:12:37.225Z,11.70
2019-05-20T03:15:07.087Z,11.69
2019-05-20T03:17:36.355Z,11.74
2019-05-20T03:20:06.027Z,11.75
2019-05-20T03:22:35.312Z,11.77
2019-05-20T03:25:06.641Z,11.77
2019-05-20T03:27:37.040Z,11.83
2019-05-20T03:30:08.037Z,11.83
2019-05-20T03:32:37.398Z,11.82
2019-05-20T03:35:07.998Z,11.82
2019-05-20T03:37:37.363Z,11.88
2019-05-20T03:40:07.506Z,11.88
2019-05-20T03:42:36.794Z,11.91
2019-05-20T03:45:06.544Z,11.95
2019-05-20T03:47:35.867Z,11.89
2019-05-20T03:50:07.255Z,11.92
2019-05-20T03:52:36.546Z,11.92
2019-05-20T03:55:07.399Z,11.84
2019-05-20T03:57:36.948Z,11.86
2019-05-20T04:00:06.945Z,11.88
2019-05-20T04:02:36.256Z,11.87
2019-05-20T04:05:06.006Z,11.86
2019-05-20T04:07:36.765Z,11.90
2019-05-20T04:10:06.766Z,11.90
2019-05-20T04:12:36.072Z,11.89
2019-05-20T04:15:06.359Z,11.89
2019-05-20T04:17:35.665Z,11.93
2019-05-20T04:20:06.720Z,11.96
2019-05-20T04:22:36.040Z,11.92
2019-05-20T04:25:06.961Z,11.94
2019-05-20T04:27:36.263Z,11.93
2019-05-20T04:30:08.704Z,11.90
2019-05-20T04:32:38.018Z,11.93
2019-05-20T04:35:21.266Z,11.86
2019-05-20T04:37:38.307Z,11.88
2019-05-20T04:40:07.989Z,11.88
2019-05-20T04:42:37.345Z,11.88
2019-05-20T04:45:09.282Z,11.90
2019-05-20T04:47:38.578Z,11.84
2019-05-20T04:50:08.368Z,11.85
2019-05-20T04:52:38.711Z,11.89
2019-05-20T04:55:08.549Z,11.94
2019-05-20T04:57:37.866Z,11.89
2019-05-20T05:00:10.890Z,11.95
2019-05-20T05:02:43.427Z,11.95
2019-05-20T05:05:11.491Z,11.98
2019-05-20T05:07:40.888Z,12.02
2019-05-20T05:10:10.649Z,11.95
2019-05-20T05:12:39.948Z,12.04
2019-05-20T05:15:09.777Z,12.02
2019-05-20T05:17:39.165Z,11.99
2019-05-20T05:20:18.105Z,11.99
2019-05-20T05:22:43.372Z,12.03
2019-05-20T05:25:12.725Z,12.10
2019-05-20T05:27:42.028Z,12.12
2019-05-20T05:30:11.494Z,12.21
2019-05-20T05:32:44.186Z,12.31
2019-05-20T05:35:15.501Z,12.30
2019-05-20T05:37:44.823Z,12.37
2019-05-20T05:40:14.552Z,12.42
2019-05-20T05:42:43.854Z,12.40
2019-05-20T05:45:14.486Z,12.45
2019-05-20T05:47:45.333Z,12.47
2019-05-20T05:50:16.175Z,12.52
2019-05-20T05:52:45.470Z,12.56
2019-05-20T05:55:14.772Z,12.57
2019-05-20T05:57:44.081Z,12.62
2019-05-20T06:00:13.631Z,12.69
2019-05-20T06:02:43.173Z,12.68
2019-05-20T06:05:12.447Z,12.58
2019-05-20T06:07:41.779Z,12.76
2019-05-20T06:10:12.098Z,12.74
2019-05-20T06:12:41.402Z,12.67
2019-05-20T06:15:11.051Z,12.75
2019-05-20T06:17:41.677Z,12.70
2019-05-20T06:20:11.502Z,12.71
2019-05-20T06:22:40.905Z,12.72
2019-05-20T06:25:10.967Z,12.71
2019-05-20T06:27:40.528Z,12.58
2019-05-20T06:30:11.371Z,12.64
2019-05-20T06:32:40.909Z,12.64
2019-05-20T06:35:11.022Z,12.74
2019-05-20T06:37:50.908Z,12.89
2019-05-20T06:40:20.277Z,12.84
2019-05-20T06:42:49.588Z,12.80
2019-05-20T06:45:19.078Z,12.61
2019-05-20T06:47:48.387Z,12.69
2019-05-20T06:50:18.970Z,12.75
2019-05-20T06:52:49.109Z,12.82
2019-05-20T06:55:18.524Z,12.88
2019-05-20T06:57:47.889Z,12.76
2019-05-20T07:00:32.269Z,12.82
2019-05-20T07:03:01.653Z,12.73
2019-05-20T07:05:31.066Z,12.80
2019-05-20T07:08:01.458Z,12.70
2019-05-20T07:10:30.931Z,12.74
2019-05-20T07:13:00.258Z,12.67
2019-05-20T07:15:29.670Z,12.70
2019-05-20T07:17:59.092Z,12.67
2019-05-20T07:20:29.562Z,12.59
2019-05-20T07:22:58.943Z,12.76
2019-05-20T07:25:28.372Z,12.81
2019-05-20T07:27:57.720Z,12.74
2019-05-20T07:30:27.027Z,12.90
2019-05-20T07:32:56.344Z,12.76
2019-05-20T07:35:30.803Z,12.73
2019-05-20T07:37:56.945Z,12.63
2019-05-20T07:40:31.162Z,12.69
2019-05-20T07:43:00.465Z,12.80
2019-05-20T07:45:31.440Z,12.86
2019-05-20T07:48:01.032Z,12.92
2019-05-20T07:50:31.576Z,12.95
2019-05-20T07:53:01.312Z,12.98
2019-05-20T07:55:32.955Z,12.95
2019-05-20T07:58:06.191Z,12.89
2019-05-20T08:00:35.831Z,12.77
2019-05-20T08:03:05.675Z,12.86
2019-05-20T08:05:35.354Z,12.87
2019-05-20T08:08:05.036Z,12.88
2019-05-20T08:10:34.415Z,12.84
2019-05-20T08:13:03.745Z,12.74
2019-05-20T08:15:33.058Z,12.78
2019-05-20T08:18:02.717Z,12.91
2019-05-20T08:20:32.031Z,13.02
2019-05-20T08:23:01.330Z,13.17
2019-05-20T08:25:30.647Z,13.03
2019-05-20T08:27:59.977Z,12.96
2019-05-20T08:30:35.111Z,12.90
2019-05-20T08:33:04.992Z,12.95
2019-05-20T08:35:34.479Z,13.01
2019-05-20T08:38:04.241Z,13.20
2019-05-20T08:40:33.552Z,13.51
2019-05-20T08:43:02.892Z,13.57
2019-05-20T08:45:32.347Z,13.60
2019-05-20T08:48:01.689Z,13.64
2019-05-20T08:50:30.989Z,13.43
2019-05-20T08:53:00.630Z,13.36
2019-05-20T08:55:30.495Z,13.20
2019-05-20T08:57:59.809Z,13.11
2019-05-20T09:00:29.313Z,13.12
2019-05-20T09:02:59.548Z,13.23
2019-05-20T09:05:29.003Z,13.31
2019-05-20T09:08:03.762Z,13.30
2019-05-20T09:10:29.592Z,13.27
2019-05-20T09:12:58.962Z,13.30
2019-05-20T09:15:28.549Z,13.37
2019-05-20T09:17:59.450Z,13.49
2019-05-20T09:20:28.746Z,13.41
2019-05-20T09:22:58.114Z,13.22
2019-05-20T09:25:32.087Z,13.37
2019-05-20T09:28:01.760Z,13.43
2019-05-20T09:30:31.109Z,13.59
2019-05-20T09:33:00.551Z,13.40
2019-05-20T09:35:30.008Z,13.67
2019-05-20T09:38:00.641Z,13.70
2019-05-20T09:40:38.395Z,13.52
2019-05-20T09:43:08.750Z,13.53
2019-05-20T09:45:38.364Z,13.61
2019-05-20T09:48:08.061Z,13.62
2019-05-20T09:50:37.335Z,13.59
2019-05-20T09:53:07.731Z,13.74
2019-05-20T09:55:37.653Z,13.83
2019-05-20T09:58:07.803Z,13.70
2019-05-20T10:00:37.233Z,13.70
2019-05-20T10:03:07.643Z,13.77
2019-05-20T10:05:37.779Z,13.80
2019-05-20T10:08:07.535Z,13.82
2019-05-20T10:10:38.017Z,13.92
2019-05-20T10:13:08.341Z,13.94
2019-05-20T10:15:37.965Z,13.78
2019-05-20T10:18:07.523Z,13.83
2019-05-20T10:20:36.906Z,13.90
2019-05-20T10:23:07.446Z,13.84
2019-05-20T10:25:36.775Z,13.71
2019-05-20T10:28:06.226Z,13.78
2019-05-20T10:30:35.574Z,13.81
2019-05-20T10:33:09.122Z,13.69
2019-05-20T10:35:36.960Z,13.69
2019-05-20T10:38:06.401Z,13.79
2019-05-20T10:40:35.710Z,13.74
2019-05-20T10:43:05.046Z,13.77
2019-05-20T10:45:34.686Z,13.71
2019-05-20T10:48:08.588Z,13.77
2019-05-20T10:50:36.139Z,13.80
2019-05-20T10:53:05.468Z,13.59
2019-05-20T10:55:34.837Z,13.74
2019-05-20T10:58:05.673Z,13.77
2019-05-20T11:00:35.038Z,13.83
2019-05-20T11:03:04.419Z,13.89
2019-05-20T11:05:33.827Z,13.83
2019-05-20T11:08:03.206Z,13.77
2019-05-20T11:10:37.029Z,13.80
2019-05-20T11:13:06.384Z,13.92
2019-05-20T11:15:35.841Z,14.02
2019-05-20T11:18:05.342Z,14.10
2019-05-20T11:20:34.651Z,14.02
2019-05-20T11:23:03.943Z,14.08
2019-05-20T11:25:33.314Z,14.20
2019-05-20T11:28:02.718Z,14.16
2019-05-20T11:30:32.086Z,14.04
2019-05-20T11:33:01.481Z,13.93
2019-05-20T11:35:30.814Z,13.93
2019-05-20T11:38:00.302Z,13.91
2019-05-20T11:40:29.590Z,14.06
2019-05-20T11:42:58.910Z,14.06
2019-05-20T11:45:28.285Z,13.96
2019-05-20T11:47:57.589Z,14.01
2019-05-20T11:50:26.890Z,14.11
2019-05-20T11:52:56.200Z,14.14
2019-05-20T11:55:25.605Z,14.10
2019-05-20T11:57:55.316Z,14.05
2019-05-20T12:00:25.396Z,14.07
2019-05-20T12:02:55.684Z,14.07
2019-05-20T12:05:24.978Z,14.28
2019-05-20T12:07:54.314Z,14.30
2019-05-20T12:10:23.679Z,14.11
2019-05-20T12:12:53.031Z,14.17
2019-05-20T12:15:22.416Z,14.37
2019-05-20T12:17:51.721Z,14.29
2019-05-20T12:20:21.704Z,14.41
2019-05-20T12:22:52.698Z,14.33
2019-05-20T12:25:22.185Z,14.43
2019-05-20T12:27:51.489Z,14.52
2019-05-20T12:30:21.004Z,14.65
2019-05-20T12:32:50.461Z,14.68
2019-05-20T12:35:19.756Z,14.67
2019-05-20T12:37:49.138Z,14.64
2019-05-20T12:40:18.830Z,14.45
2019-05-20T12:42:48.114Z,14.39
2019-05-20T12:45:17.597Z,14.57
2019-05-20T12:47:46.911Z,14.82
2019-05-20T12:50:16.861Z,14.89
2019-05-20T12:52:46.204Z,14.96
2019-05-20T12:55:15.770Z,15.11
2019-05-20T12:57:45.345Z,15.08
2019-05-20T13:00:16.652Z,15.03
2019-05-20T13:02:46.236Z,15.03
2019-05-20T13:05:15.591Z,15.13
2019-05-20T13:07:44.922Z,15.31
2019-05-20T13:10:28.982Z,15.31
2019-05-20T13:12:45.531Z,15.11
2019-05-20T13:15:15.027Z,15.17
2019-05-20T13:17:45.476Z,15.08
2019-05-20T13:20:15.608Z,15.11
2019-05-20T13:22:44.990Z,15.19
2019-05-20T13:25:14.384Z,15.47
2019-05-20T13:27:43.724Z,15.61
2019-05-20T13:30:14.657Z,15.64
2019-05-20T13:32:44.003Z,15.72
2019-05-20T13:35:13.904Z,15.80
2019-05-20T13:37:43.229Z,15.79
2019-05-20T13:40:12.872Z,15.58
2019-05-20T13:42:42.217Z,15.49
2019-05-20T13:45:11.768Z,15.32
2019-05-20T13:47:41.178Z,15.19
2019-05-20T13:50:10.820Z,15.21
2019-05-20T13:52:40.248Z,15.11
2019-05-20T13:55:10.055Z,15.20
2019-05-20T13:57:39.407Z,15.23
2019-05-20T14:00:09.686Z,15.22
2019-05-20T14:02:39.167Z,15.53
2019-05-20T14:05:08.614Z,14.99
2019-05-20T14:07:38.508Z,14.92
2019-05-20T14:10:08.313Z,14.83
2019-05-20T14:12:37.737Z,14.84
2019-05-20T14:15:08.331Z,14.90
2019-05-20T14:17:37.710Z,15.03
2019-05-20T14:20:07.431Z,15.18
2019-05-20T14:22:36.723Z,15.36
2019-05-20T14:25:08.622Z,15.42
2019-05-20T14:27:38.173Z,15.19
2019-05-20T14:30:08.291Z,15.50
2019-05-20T14:32:37.705Z,15.62
2019-05-20T14:35:08.120Z,15.44
2019-05-20T14:37:39.023Z,15.41
2019-05-20T14:40:08.723Z,15.49
2019-05-20T14:42:39.156Z,15.11
2019-05-20T14:45:08.871Z,15.07
2019-05-20T14:47:38.191Z,15.12
2019-05-20T14:50:08.651Z,14.99
2019-05-20T14:52:38.132Z,15.06
2019-05-20T14:55:07.716Z,15.23
2019-05-20T14:57:37.008Z,15.32
2019-05-20T15:00:08.028Z,15.12
2019-05-20T15:02:37.547Z,14.92
2019-05-20T15:05:07.376Z,14.69
2019-05-20T15:07:36.765Z,14.57
2019-05-20T15:10:09.499Z,14.73
2019-05-20T15:12:38.786Z,14.69
2019-05-20T15:15:09.679Z,14.76
2019-05-20T15:17:39.040Z,14.88
2019-05-20T15:20:08.766Z,14.74
2019-05-20T15:22:39.252Z,14.71
2019-05-20T15:25:10.181Z,14.71
2019-05-20T15:27:39.598Z,14.70
2019-05-20T15:30:09.258Z,14.67
2019-05-20T15:32:38.579Z,14.61
2019-05-20T15:35:08.346Z,14.47
2019-05-20T15:37:37.655Z,14.34
2019-05-20T15:40:07.347Z,14.35
2019-05-20T15:42:36.755Z,14.33
2019-05-20T15:45:08.097Z,14.41
2019-05-20T15:47:37.519Z,14.48
2019-05-20T15:50:10.022Z,14.57
2019-05-20T15:52:38.614Z,14.63
2019-05-20T15:55:08.944Z,14.73
2019-05-20T15:57:38.231Z,14.66
2019-05-20T16:00:09.560Z,14.39
2019-05-20T16:02:38.921Z,14.29
2019-05-20T16:05:08.713Z,14.24
2019-05-20T16:07:38.054Z,14.21
2019-05-20T16:10:07.521Z,13.94
2019-05-20T16:12:36.908Z,13.99
2019-05-20T16:15:07.375Z,13.93
2019-05-20T16:17:36.817Z,13.86
2019-05-20T16:20:07.553Z,13.87
2019-05-20T16:22:36.926Z,13.92
2019-05-20T16:25:07.399Z,14.02
2019-05-20T16:27:36.777Z,13.95
2019-05-20T16:30:09.231Z,13.90
2019-05-20T16:32:38.951Z,13.92
2019-05-20T16:35:08.303Z,13.93
2019-05-20T16:37:38.091Z,13.97
2019-05-20T16:40:08.756Z,14.07
2019-05-20T16:42:38.712Z,13.82
2019-05-20T16:45:11.786Z,13.67
2019-05-20T16:47:40.268Z,13.70
2019-05-20T16:50:10.400Z,13.72
2019-05-20T16:52:39.701Z,13.77
2019-05-20T16:55:09.245Z,13.71
2019-05-20T16:57:38.731Z,13.73
2019-05-20T17:00:29.344Z,13.65
2019-05-20T17:02:41.415Z,13.63
2019-05-20T17:05:10.741Z,13.53
2019-05-20T17:07:40.064Z,13.61
2019-05-20T17:10:09.691Z,13.51
2019-05-20T17:12:39.090Z,13.56
2019-05-20T17:15:09.108Z,13.44
2019-05-20T17:17:38.408Z,13.48
2019-05-20T17:20:08.482Z,13.56
2019-05-20T17:22:37.859Z,13.58
2019-05-20T17:25:10.318Z,13.50
2019-05-20T17:27:39.659Z,13.48
2019-05-20T17:30:09.377Z,13.55
2019-05-20T17:32:39.039Z,13.78
2019-05-20T17:35:08.507Z,13.82
2019-05-20T17:37:38.108Z,13.78
2019-05-20T17:40:09.907Z,13.69
2019-05-20T17:42:39.508Z,13.54
2019-05-20T17:45:09.039Z,13.53
2019-05-20T17:47:38.416Z,13.55
2019-05-20T17:50:09.156Z,13.56
2019-05-20T17:52:38.573Z,13.53
2019-05-20T17:55:09.088Z,13.57
2019-05-20T17:57:38.453Z,13.56
2019-05-20T18:00:10.492Z,13.49
2019-05-20T18:02:39.830Z,13.50
2019-05-20T18:05:09.538Z,13.46
2019-05-20T18:07:38.914Z,13.43
2019-05-20T18:10:09.317Z,13.32
2019-05-20T18:12:38.591Z,13.31
2019-05-20T18:15:08.330Z,13.19
2019-05-20T18:17:37.634Z,13.18
2019-05-20T18:20:07.110Z,13.08
2019-05-20T18:22:36.379Z,13.10
2019-05-20T18:25:08.762Z,13.03
2019-05-20T18:27:39.095Z,13.01
2019-05-20T18:30:08.934Z,12.87
2019-05-20T18:32:38.751Z,12.86
2019-05-20T18:35:09.003Z,12.80
2019-05-20T18:37:38.278Z,12.78
2019-05-20T18:40:14.450Z,12.68
2019-05-20T18:42:40.669Z,12.65
2019-05-20T18:45:10.355Z,12.61
2019-05-20T18:47:39.618Z,12.58
2019-05-20T18:50:09.278Z,12.55
2019-05-20T18:52:38.587Z,12.53
2019-05-20T18:55:07.980Z,12.52
2019-05-20T18:57:38.438Z,12.55
2019-05-20T19:00:08.827Z,12.50
2019-05-20T19:02:39.749Z,12.46
2019-05-20T19:05:09.391Z,12.39
2019-05-20T19:07:38.740Z,12.30
2019-05-20T19:10:17.755Z,12.19
2019-05-20T19:12:49.619Z,12.27
2019-05-20T19:15:19.252Z,12.25
2019-05-20T19:17:48.701Z,12.19
2019-05-20T19:20:17.999Z,12.12
2019-05-20T19:22:47.387Z,12.10
2019-05-20T19:25:16.773Z,12.09
2019-05-20T19:27:46.152Z,12.06
2019-05-20T19:30:15.713Z,12.11
2019-05-20T19:32:45.094Z,11.99
2019-05-20T19:35:14.548Z,11.99
2019-05-20T19:37:44.124Z,11.99
2019-05-20T19:40:13.448Z,12.02
2019-05-20T19:42:42.956Z,12.04
2019-05-20T19:45:12.575Z,12.02
2019-05-20T19:47:42.085Z,11.99
2019-05-20T19:50:11.645Z,11.89
2019-05-20T19:52:40.958Z,11.85
2019-05-20T19:55:10.382Z,11.85
2019-05-20T19:57:39.754Z,11.84
2019-05-20T20:00:09.463Z,11.83
2019-05-20T20:02:38.837Z,11.75
2019-05-20T20:05:08.522Z,11.69
2019-05-20T20:07:37.883Z,11.75
2019-05-20T20:10:08.752Z,11.57
2019-05-20T20:12:38.055Z,11.44
2019-05-20T20:15:07.601Z,11.46
2019-05-20T20:17:36.925Z,11.42
2019-05-20T20:20:06.400Z,11.38
2019-05-20T20:22:38.413Z,11.34
2019-05-20T20:25:07.860Z,11.35
2019-05-20T20:27:37.418Z,11.31
2019-05-20T20:30:06.857Z,11.27
2019-05-20T20:32:38.674Z,11.28
2019-05-20T20:35:08.778Z,11.24
2019-05-20T20:37:38.090Z,11.10
2019-05-20T20:40:07.801Z,11.12
2019-05-20T20:42:37.119Z,11.07
2019-05-20T20:45:06.768Z,11.04
2019-05-20T20:47:41.815Z,11.05
2019-05-20T20:50:08.604Z,11.05
2019-05-20T20:52:38.155Z,11.05
2019-05-20T20:55:08.284Z,11.05
2019-05-20T20:57:37.717Z,11.05
2019-05-20T21:00:09.077Z,10.98
2019-05-20T21:02:52.285Z,10.96
2019-05-20T21:05:11.886Z,11.00
2019-05-20T21:07:41.196Z,10.95
2019-05-20T21:10:10.682Z,10.99
2019-05-20T21:12:40.029Z,10.91
2019-05-20T21:15:09.701Z,10.91
2019-05-20T21:17:38.983Z,10.93
2019-05-20T21:20:08.360Z,11.01
2019-05-20T21:22:38.716Z,11.04
2019-05-20T21:25:08.248Z,11.01
2019-05-20T21:27:37.558Z,11.01
2019-05-20T21:30:08.259Z,11.04
2019-05-20T21:32:37.599Z,11.04
2019-05-20T21:35:07.313Z,11.00
2019-05-20T21:37:36.612Z,10.98
2019-05-20T21:40:06.196Z,11.00
2019-05-20T21:42:35.510Z,10.98
2019-05-20T21:45:06.436Z,10.98
2019-05-20T21:47:35.716Z,11.05
2019-05-20T21:50:05.897Z,11.06
2019-05-20T21:52:35.172Z,11.03
2019-05-20T21:55:06.161Z,10.97
2019-05-20T21:57:36.521Z,10.94
2019-05-20T22:00:07.696Z,10.91
2019-05-20T22:02:37.867Z,10.84
2019-05-20T22:05:07.503Z,10.79
2019-05-20T22:07:36.898Z,10.77
2019-05-20T22:10:07.429Z,10.72
2019-05-20T22:12:36.781Z,10.76
2019-05-20T22:15:06.927Z,10.72
2019-05-20T22:17:36.263Z,10.76
2019-05-20T22:20:06.392Z,10.72
2019-05-20T22:22:53.796Z,10.69
2019-05-20T22:25:23.122Z,10.71
2019-05-20T22:27:52.412Z,10.73
2019-05-20T22:30:21.749Z,10.73
2019-05-20T22:32:51.027Z,10.71
2019-05-20T22:35:20.364Z,10.73
2019-05-20T22:37:49.629Z,10.76
2019-05-20T22:40:18.973Z,10.77
2019-05-20T22:42:48.281Z,10.71
2019-05-20T22:45:17.664Z,10.77
2019-05-20T22:47:47.079Z,10.72
2019-05-20T22:50:16.388Z,10.63
2019-05-20T22:52:45.714Z,10.63
2019-05-20T22:55:15.078Z,10.59
2019-05-20T22:57:44.446Z,10.61
2019-05-20T23:00:14.151Z,10.61
2019-05-20T23:02:43.551Z,10.65
2019-05-20T23:05:13.122Z,10.68
2019-05-20T23:07:42.506Z,10.71
2019-05-20T23:10:12.426Z,10.70
2019-05-20T23:12:41.832Z,10.65
2019-05-20T23:15:11.290Z,10.70
2019-05-20T23:17:40.596Z,10.73
2019-05-20T23:20:10.282Z,10.73
2019-05-20T23:22:39.573Z,10.70
2019-05-20T23:25:08.947Z,10.65
2019-05-20T23:27:38.318Z,10.73
2019-05-20T23:30:08.248Z,10.69
2019-05-20T23:32:37.543Z,10.69
2019-05-20T23:35:08.376Z,10.71
2019-05-20T23:37:37.660Z,10.69
2019-05-20T23:40:10.431Z,10.69
2019-05-20T23:42:39.726Z,10.70
2019-05-20T23:45:10.194Z,10.62
2019-05-20T23:47:39.560Z,10.48
2019-05-20T23:50:09.053Z,10.54
2019-05-20T23:52:38.354Z,10.55
2019-05-20T23:55:08.414Z,10.53
2019-05-20T23:57:37.815Z,10.56
